Valley International Airport
KHRL : now visible

Airfield :











YOU CAN JOIN US ON...

 
LOGIN :

Register | Disclaimer

   EN    FR    IT 

 









Legend :    VFR   Marginal VFR   IFR   Intensive IFR   Very Intensive IFR
Visi :
Ceiling :
>= 8 km
>= 3000ft
5 to 8 km
1000 to 3000 ft
1500m to 5 km
500 to 1000 ft
800 to 1500m
200 to 500 ft
< 800m
< 200 ft
Symbols :   Thunderstorms  Fog  Heavy snow  Heavy precipitations  Wind > 20 kt






- Airport Elevation : 36 ft
- IATA code : HRL


KHRL - Valley International

CURRENT METAR :
  • 180652Z AUTO 12004KT 10SM CLR 12/12 A3007 RMK AO2 SLP183 T01220122

EXPIRED METARs :
  • 180552Z 00000KT 10SM FEW024 OVC039 14/14 A3009 RMK AO2 SLP188 T01440139 10189 20117 402330067 51003
  • 180452Z 09004KT 10SM BKN033 13/13 A3009 RMK AO2 SLP188 T01280128

TAF KHRL
Valid from the 18 at 06:00 until the 19 at 06:00 UTC


180520Z 1806/1906 VRB04KT P6SM SCT100
FM180800 VRB04KT 5SM BR BKN009
FM181000 VRB04KT 1/4SM FG BKN004
FM181600 17011KT P6SM BKN050
FM181900 17017G25KT P6SM BKN045
FM190300 16016G23KT P6SM OVC035
KZHU FIR / North America



MET'MAP, your aeronautical weather chart ! - Copyright ORBIFLY December 2007 - Disclaimer

ORBIFLY MET'MAP TEAM :

Programming & Development : Alexandra Zaïnal
Concept & original design : Baudouin d'Aumeries
Assistance for programming : Marc-Olivier Méhu
Technical & hardware support : Manuel Goepfert

Contact : metmap@orbifly.com




SOURCES & CREDITS :

   NOAA       Earth
Advisory